sensor_id;sensor_type;location;lat;lon;timestamp;temperature;humidity
21261;DHT22;10788;47.930;9.766;2023-09-30T00:01:55;15.90;99.90
21261;DHT22;10788;47.930;9.766;2023-09-30T00:04:20;16.00;99.90
21261;DHT22;10788;47.930;9.766;2023-09-30T00:06:46;15.90;99.90
21261;DHT22;10788;47.930;9.766;2023-09-30T00:09:11;15.90;99.90
21261;DHT22;10788;47.930;9.766;2023-09-30T00:11:38;15.80;99.90
21261;DHT22;10788;47.930;9.766;2023-09-30T00:14:04;15.70;99.90
21261;DHT22;10788;47.930;9.766;2023-09-30T00:16:30;15.70;99.90
21261;DHT22;10788;47.930;9.766;2023-09-30T00:18:56;15.70;99.90
21261;DHT22;10788;47.930;9.766;2023-09-30T00:21:24;15.70;99.90
21261;DHT22;10788;47.930;9.766;2023-09-30T00:23:50;15.70;99.90
21261;DHT22;10788;47.930;9.766;2023-09-30T00:26:15;15.70;99.90
21261;DHT22;10788;47.930;9.766;2023-09-30T00:28:41;15.70;99.90
21261;DHT22;10788;47.930;9.766;2023-09-30T00:31:07;15.70;99.90
21261;DHT22;10788;47.930;9.766;2023-09-30T00:33:35;15.70;99.90
21261;DHT22;10788;47.930;9.766;2023-09-30T00:36:09;15.80;99.90
21261;DHT22;10788;47.930;9.766;2023-09-30T00:38:35;15.80;99.90
21261;DHT22;10788;47.930;9.766;2023-09-30T00:41:01;15.70;99.90
21261;DHT22;10788;47.930;9.766;2023-09-30T00:43:26;15.80;99.90
21261;DHT22;10788;47.930;9.766;2023-09-30T00:46:02;15.80;99.90
21261;DHT22;10788;47.930;9.766;2023-09-30T00:48:29;15.70;99.90
21261;DHT22;10788;47.930;9.766;2023-09-30T00:50:55;15.70;99.90
21261;DHT22;10788;47.930;9.766;2023-09-30T00:53:22;15.70;99.90
21261;DHT22;10788;47.930;9.766;2023-09-30T00:55:48;15.70;99.90
21261;DHT22;10788;47.930;9.766;2023-09-30T00:58:14;15.70;99.90
21261;DHT22;10788;47.930;9.766;2023-09-30T01:00:40;15.70;99.90
21261;DHT22;10788;47.930;9.766;2023-09-30T01:03:06;15.70;99.90
21261;DHT22;10788;47.930;9.766;2023-09-30T01:05:32;15.70;99.90
21261;DHT22;10788;47.930;9.766;2023-09-30T01:08:01;15.70;99.90
21261;DHT22;10788;47.930;9.766;2023-09-30T01:10:28;15.70;99.90
21261;DHT22;10788;47.930;9.766;2023-09-30T01:12:54;15.70;99.90
21261;DHT22;10788;47.930;9.766;2023-09-30T01:15:19;15.60;99.90
21261;DHT22;10788;47.930;9.766;2023-09-30T01:17:45;15.60;99.90
21261;DHT22;10788;47.930;9.766;2023-09-30T01:20:12;15.60;99.90
21261;DHT22;10788;47.930;9.766;2023-09-30T01:22:47;15.50;99.90
21261;DHT22;10788;47.930;9.766;2023-09-30T01:25:13;15.50;99.90
21261;DHT22;10788;47.930;9.766;2023-09-30T01:27:38;15.50;99.90
21261;DHT22;10788;47.930;9.766;2023-09-30T01:30:04;15.50;99.90
21261;DHT22;10788;47.930;9.766;2023-09-30T01:32:30;15.50;99.90
21261;DHT22;10788;47.930;9.766;2023-09-30T01:34:56;15.50;99.90
21261;DHT22;10788;47.930;9.766;2023-09-30T01:37:21;15.50;99.90
21261;DHT22;10788;47.930;9.766;2023-09-30T01:39:47;15.50;99.90
21261;DHT22;10788;47.930;9.766;2023-09-30T01:42:15;15.50;99.90
21261;DHT22;10788;47.930;9.766;2023-09-30T01:44:41;15.50;99.90
21261;DHT22;10788;47.930;9.766;2023-09-30T01:47:06;15.40;99.90
21261;DHT22;10788;47.930;9.766;2023-09-30T01:49:32;15.40;99.90
21261;DHT22;10788;47.930;9.766;2023-09-30T01:51:57;15.50;99.90
21261;DHT22;10788;47.930;9.766;2023-09-30T01:54:23;15.50;99.90
21261;DHT22;10788;47.930;9.766;2023-09-30T01:56:49;15.50;99.90
21261;DHT22;10788;47.930;9.766;2023-09-30T01:59:15;15.50;99.90
21261;DHT22;10788;47.930;9.766;2023-09-30T02:01:42;15.40;99.90
21261;DHT22;10788;47.930;9.766;2023-09-30T02:04:07;15.50;99.90
21261;DHT22;10788;47.930;9.766;2023-09-30T02:06:33;15.50;99.90
21261;DHT22;10788;47.930;9.766;2023-09-30T02:08:59;15.50;99.90
21261;DHT22;10788;47.930;9.766;2023-09-30T02:11:24;15.60;99.90
21261;DHT22;10788;47.930;9.766;2023-09-30T02:13:50;15.60;99.90
21261;DHT22;10788;47.930;9.766;2023-09-30T02:16:15;15.50;99.90
21261;DHT22;10788;47.930;9.766;2023-09-30T02:18:43;15.60;99.90
21261;DHT22;10788;47.930;9.766;2023-09-30T02:21:10;15.60;99.90
21261;DHT22;10788;47.930;9.766;2023-09-30T02:23:36;15.60;99.90
21261;DHT22;10788;47.930;9.766;2023-09-30T02:26:02;15.50;99.90
21261;DHT22;10788;47.930;9.766;2023-09-30T02:28:28;15.50;99.90
21261;DHT22;10788;47.930;9.766;2023-09-30T02:30:58;15.50;99.90
21261;DHT22;10788;47.930;9.766;2023-09-30T02:33:24;15.50;99.90
21261;DHT22;10788;47.930;9.766;2023-09-30T02:35:51;15.50;99.90
21261;DHT22;10788;47.930;9.766;2023-09-30T02:38:17;15.50;99.90
21261;DHT22;10788;47.930;9.766;2023-09-30T02:40:44;15.50;99.90
21261;DHT22;10788;47.930;9.766;2023-09-30T02:43:12;15.50;99.90
21261;DHT22;10788;47.930;9.766;2023-09-30T02:45:38;15.40;99.90
21261;DHT22;10788;47.930;9.766;2023-09-30T02:48:04;15.40;99.90
21261;DHT22;10788;47.930;9.766;2023-09-30T02:50:30;15.40;99.90
21261;DHT22;10788;47.930;9.766;2023-09-30T02:52:55;15.40;99.90
21261;DHT22;10788;47.930;9.766;2023-09-30T02:55:21;15.30;99.90
21261;DHT22;10788;47.930;9.766;2023-09-30T02:57:47;15.50;99.90
21261;DHT22;10788;47.930;9.766;2023-09-30T03:00:12;15.40;99.90
21261;DHT22;10788;47.930;9.766;2023-09-30T03:02:55;15.40;99.90
21261;DHT22;10788;47.930;9.766;2023-09-30T03:05:21;15.30;99.90
21261;DHT22;10788;47.930;9.766;2023-09-30T03:07:48;15.30;99.90
21261;DHT22;10788;47.930;9.766;2023-09-30T03:10:16;15.30;99.90
21261;DHT22;10788;47.930;9.766;2023-09-30T03:12:55;15.30;99.90
21261;DHT22;10788;47.930;9.766;2023-09-30T03:15:22;15.30;99.90
21261;DHT22;10788;47.930;9.766;2023-09-30T03:17:48;15.30;99.90
21261;DHT22;10788;47.930;9.766;2023-09-30T03:20:14;15.30;99.90
21261;DHT22;10788;47.930;9.766;2023-09-30T03:22:44;15.30;99.90
21261;DHT22;10788;47.930;9.766;2023-09-30T03:25:12;15.30;99.90
21261;DHT22;10788;47.930;9.766;2023-09-30T03:27:38;15.20;99.90
21261;DHT22;10788;47.930;9.766;2023-09-30T03:30:05;15.20;99.90
21261;DHT22;10788;47.930;9.766;2023-09-30T03:32:31;15.20;99.90
21261;DHT22;10788;47.930;9.766;2023-09-30T03:34:59;15.10;99.90
21261;DHT22;10788;47.930;9.766;2023-09-30T03:37:32;15.10;99.90
21261;DHT22;10788;47.930;9.766;2023-09-30T03:39:57;15.10;99.90
21261;DHT22;10788;47.930;9.766;2023-09-30T03:42:23;15.00;99.90
21261;DHT22;10788;47.930;9.766;2023-09-30T03:44:49;15.10;99.90
21261;DHT22;10788;47.930;9.766;2023-09-30T03:47:15;15.10;99.90
21261;DHT22;10788;47.930;9.766;2023-09-30T03:49:42;15.20;99.90
21261;DHT22;10788;47.930;9.766;2023-09-30T03:52:11;15.20;99.90
21261;DHT22;10788;47.930;9.766;2023-09-30T03:54:37;15.10;99.90
21261;DHT22;10788;47.930;9.766;2023-09-30T03:57:03;15.20;99.90
21261;DHT22;10788;47.930;9.766;2023-09-30T03:59:29;15.20;99.90
21261;DHT22;10788;47.930;9.766;2023-09-30T04:01:55;15.10;99.90
21261;DHT22;10788;47.930;9.766;2023-09-30T04:04:24;15.10;99.90
21261;DHT22;10788;47.930;9.766;2023-09-30T04:06:50;15.10;99.90
21261;DHT22;10788;47.930;9.766;2023-09-30T04:09:17;15.10;99.90
21261;DHT22;10788;47.930;9.766;2023-09-30T04:11:43;15.10;99.90
21261;DHT22;10788;47.930;9.766;2023-09-30T04:14:08;15.10;99.90
21261;DHT22;10788;47.930;9.766;2023-09-30T04:16:35;15.10;99.90
21261;DHT22;10788;47.930;9.766;2023-09-30T04:19:01;15.00;99.90
21261;DHT22;10788;47.930;9.766;2023-09-30T04:21:27;15.10;99.90
21261;DHT22;10788;47.930;9.766;2023-09-30T04:23:55;15.10;99.90
21261;DHT22;10788;47.930;9.766;2023-09-30T04:26:21;15.10;99.90
21261;DHT22;10788;47.930;9.766;2023-09-30T04:28:47;15.00;99.90
21261;DHT22;10788;47.930;9.766;2023-09-30T04:31:13;15.10;99.90
21261;DHT22;10788;47.930;9.766;2023-09-30T04:33:38;15.10;99.90
21261;DHT22;10788;47.930;9.766;2023-09-30T04:36:06;14.90;99.90
21261;DHT22;10788;47.930;9.766;2023-09-30T04:38:34;15.00;99.90
21261;DHT22;10788;47.930;9.766;2023-09-30T04:40:59;15.00;99.90
21261;DHT22;10788;47.930;9.766;2023-09-30T04:43:26;15.00;99.90
21261;DHT22;10788;47.930;9.766;2023-09-30T04:45:54;14.90;99.90
21261;DHT22;10788;47.930;9.766;2023-09-30T04:48:25;15.00;99.90
21261;DHT22;10788;47.930;9.766;2023-09-30T04:50:50;15.00;99.90
21261;DHT22;10788;47.930;9.766;2023-09-30T04:53:21;15.00;99.90
21261;DHT22;10788;47.930;9.766;2023-09-30T04:55:48;15.00;99.90
21261;DHT22;10788;47.930;9.766;2023-09-30T04:58:17;15.00;99.90
21261;DHT22;10788;47.930;9.766;2023-09-30T05:00:43;15.00;99.90
21261;DHT22;10788;47.930;9.766;2023-09-30T05:03:08;15.00;99.90
21261;DHT22;10788;47.930;9.766;2023-09-30T05:05:34;15.00;99.90
21261;DHT22;10788;47.930;9.766;2023-09-30T05:08:01;15.00;99.90
21261;DHT22;10788;47.930;9.766;2023-09-30T05:10:27;15.00;99.90
21261;DHT22;10788;47.930;9.766;2023-09-30T05:12:52;15.00;99.90
21261;DHT22;10788;47.930;9.766;2023-09-30T05:15:21;15.00;99.90
21261;DHT22;10788;47.930;9.766;2023-09-30T05:17:47;15.00;99.90
21261;DHT22;10788;47.930;9.766;2023-09-30T05:20:13;15.00;99.90
21261;DHT22;10788;47.930;9.766;2023-09-30T05:22:39;14.90;99.90
21261;DHT22;10788;47.930;9.766;2023-09-30T05:25:07;14.90;99.90
21261;DHT22;10788;47.930;9.766;2023-09-30T05:27:33;14.90;99.90
21261;DHT22;10788;47.930;9.766;2023-09-30T05:29:58;14.80;99.90
21261;DHT22;10788;47.930;9.766;2023-09-30T05:32:25;14.80;99.90
21261;DHT22;10788;47.930;9.766;2023-09-30T05:34:52;14.70;99.90
21261;DHT22;10788;47.930;9.766;2023-09-30T05:37:19;14.80;99.90
21261;DHT22;10788;47.930;9.766;2023-09-30T05:39:47;14.80;99.90
21261;DHT22;10788;47.930;9.766;2023-09-30T05:42:15;14.70;99.90
21261;DHT22;10788;47.930;9.766;2023-09-30T05:44:40;14.70;99.90
21261;DHT22;10788;47.930;9.766;2023-09-30T05:47:07;14.70;99.90
21261;DHT22;10788;47.930;9.766;2023-09-30T05:49:33;14.70;99.90
21261;DHT22;10788;47.930;9.766;2023-09-30T05:51:59;14.70;99.90
21261;DHT22;10788;47.930;9.766;2023-09-30T05:54:25;14.70;99.90
21261;DHT22;10788;47.930;9.766;2023-09-30T05:56:50;14.80;99.90
21261;DHT22;10788;47.930;9.766;2023-09-30T05:59:16;14.80;99.90
21261;DHT22;10788;47.930;9.766;2023-09-30T06:01:41;14.80;99.90
21261;DHT22;10788;47.930;9.766;2023-09-30T06:04:08;14.80;99.90
21261;DHT22;10788;47.930;9.766;2023-09-30T06:06:33;14.80;99.90
21261;DHT22;10788;47.930;9.766;2023-09-30T06:08:59;14.90;99.90
21261;DHT22;10788;47.930;9.766;2023-09-30T06:11:25;14.90;99.90
21261;DHT22;10788;47.930;9.766;2023-09-30T06:13:57;14.90;99.90
21261;DHT22;10788;47.930;9.766;2023-09-30T06:16:32;14.90;99.90
21261;DHT22;10788;47.930;9.766;2023-09-30T06:18:57;14.90;99.90
21261;DHT22;10788;47.930;9.766;2023-09-30T06:21:24;14.90;99.90
21261;DHT22;10788;47.930;9.766;2023-09-30T06:23:50;14.90;99.90
21261;DHT22;10788;47.930;9.766;2023-09-30T06:26:19;14.90;99.90
21261;DHT22;10788;47.930;9.766;2023-09-30T06:28:46;15.00;99.90
21261;DHT22;10788;47.930;9.766;2023-09-30T06:31:14;15.00;99.90
21261;DHT22;10788;47.930;9.766;2023-09-30T06:33:40;15.00;99.90
21261;DHT22;10788;47.930;9.766;2023-09-30T06:36:11;15.10;99.90
21261;DHT22;10788;47.930;9.766;2023-09-30T06:38:39;15.10;99.90
21261;DHT22;10788;47.930;9.766;2023-09-30T06:41:05;15.10;99.90
21261;DHT22;10788;47.930;9.766;2023-09-30T06:43:32;15.10;99.90
21261;DHT22;10788;47.930;9.766;2023-09-30T06:45:58;15.10;99.90
21261;DHT22;10788;47.930;9.766;2023-09-30T06:48:24;15.10;99.90
21261;DHT22;10788;47.930;9.766;2023-09-30T06:50:50;15.10;99.90
21261;DHT22;10788;47.930;9.766;2023-09-30T06:53:18;15.20;99.90
21261;DHT22;10788;47.930;9.766;2023-09-30T06:55:44;15.30;99.90
21261;DHT22;10788;47.930;9.766;2023-09-30T06:58:10;15.30;99.90
21261;DHT22;10788;47.930;9.766;2023-09-30T07:00:43;15.30;99.90
21261;DHT22;10788;47.930;9.766;2023-09-30T07:03:09;15.30;99.90
21261;DHT22;10788;47.930;9.766;2023-09-30T07:05:36;15.40;99.90
21261;DHT22;10788;47.930;9.766;2023-09-30T07:08:02;15.40;99.90
21261;DHT22;10788;47.930;9.766;2023-09-30T07:10:28;15.50;99.90
21261;DHT22;10788;47.930;9.766;2023-09-30T07:12:57;15.50;99.90
21261;DHT22;10788;47.930;9.766;2023-09-30T07:15:23;15.50;99.90
21261;DHT22;10788;47.930;9.766;2023-09-30T07:17:48;15.60;99.90
21261;DHT22;10788;47.930;9.766;2023-09-30T07:20:14;15.60;99.90
21261;DHT22;10788;47.930;9.766;2023-09-30T07:22:40;15.70;99.90
21261;DHT22;10788;47.930;9.766;2023-09-30T07:25:07;15.70;99.90
21261;DHT22;10788;47.930;9.766;2023-09-30T07:27:32;15.70;99.90
21261;DHT22;10788;47.930;9.766;2023-09-30T07:29:59;15.80;99.90
21261;DHT22;10788;47.930;9.766;2023-09-30T07:32:25;15.90;99.90
21261;DHT22;10788;47.930;9.766;2023-09-30T07:34:51;15.90;99.90
21261;DHT22;10788;47.930;9.766;2023-09-30T07:37:17;15.90;99.90
21261;DHT22;10788;47.930;9.766;2023-09-30T07:39:44;15.90;99.90
21261;DHT22;10788;47.930;9.766;2023-09-30T07:42:10;15.90;99.90
21261;DHT22;10788;47.930;9.766;2023-09-30T07:44:36;16.00;99.90
21261;DHT22;10788;47.930;9.766;2023-09-30T07:47:04;16.00;99.90
21261;DHT22;10788;47.930;9.766;2023-09-30T07:49:34;16.10;99.90
21261;DHT22;10788;47.930;9.766;2023-09-30T07:52:00;16.00;99.90
21261;DHT22;10788;47.930;9.766;2023-09-30T07:54:26;16.10;99.90
21261;DHT22;10788;47.930;9.766;2023-09-30T07:56:51;16.00;99.90
21261;DHT22;10788;47.930;9.766;2023-09-30T07:59:17;16.00;99.90
21261;DHT22;10788;47.930;9.766;2023-09-30T08:01:43;15.90;99.90
21261;DHT22;10788;47.930;9.766;2023-09-30T08:04:09;15.90;99.90
21261;DHT22;10788;47.930;9.766;2023-09-30T08:06:34;15.90;99.90
21261;DHT22;10788;47.930;9.766;2023-09-30T08:09:00;16.00;99.90
21261;DHT22;10788;47.930;9.766;2023-09-30T08:11:28;16.00;99.90
21261;DHT22;10788;47.930;9.766;2023-09-30T08:13:56;16.10;99.90
21261;DHT22;10788;47.930;9.766;2023-09-30T08:16:24;16.30;99.90
21261;DHT22;10788;47.930;9.766;2023-09-30T08:18:50;16.40;99.90
21261;DHT22;10788;47.930;9.766;2023-09-30T08:21:15;16.50;99.90
21261;DHT22;10788;47.930;9.766;2023-09-30T08:23:41;16.60;99.90
21261;DHT22;10788;47.930;9.766;2023-09-30T08:26:08;16.60;99.90
21261;DHT22;10788;47.930;9.766;2023-09-30T08:28:33;16.60;99.90
21261;DHT22;10788;47.930;9.766;2023-09-30T08:31:04;16.70;99.90
21261;DHT22;10788;47.930;9.766;2023-09-30T08:33:30;16.80;99.90
21261;DHT22;10788;47.930;9.766;2023-09-30T08:36:01;16.90;99.90
21261;DHT22;10788;47.930;9.766;2023-09-30T08:38:27;17.30;99.90
21261;DHT22;10788;47.930;9.766;2023-09-30T08:40:52;17.50;99.90
21261;DHT22;10788;47.930;9.766;2023-09-30T08:43:23;17.60;99.90
21261;DHT22;10788;47.930;9.766;2023-09-30T08:45:53;17.90;99.90
21261;DHT22;10788;47.930;9.766;2023-09-30T08:48:20;18.00;99.90
21261;DHT22;10788;47.930;9.766;2023-09-30T08:50:48;18.00;99.90
21261;DHT22;10788;47.930;9.766;2023-09-30T08:53:16;18.10;99.90
21261;DHT22;10788;47.930;9.766;2023-09-30T08:55:43;18.00;99.90
21261;DHT22;10788;47.930;9.766;2023-09-30T08:58:11;18.00;99.90
21261;DHT22;10788;47.930;9.766;2023-09-30T09:00:38;17.90;99.90
21261;DHT22;10788;47.930;9.766;2023-09-30T09:03:05;17.90;99.90
21261;DHT22;10788;47.930;9.766;2023-09-30T09:05:31;17.80;99.90
21261;DHT22;10788;47.930;9.766;2023-09-30T09:07:56;17.80;99.90
21261;DHT22;10788;47.930;9.766;2023-09-30T09:10:22;17.70;99.90
21261;DHT22;10788;47.930;9.766;2023-09-30T09:12:56;17.60;99.90
21261;DHT22;10788;47.930;9.766;2023-09-30T09:15:26;17.70;99.90
21261;DHT22;10788;47.930;9.766;2023-09-30T09:17:52;17.80;99.90
21261;DHT22;10788;47.930;9.766;2023-09-30T09:20:21;18.10;99.90
21261;DHT22;10788;47.930;9.766;2023-09-30T09:22:50;18.30;99.90
21261;DHT22;10788;47.930;9.766;2023-09-30T09:25:18;18.60;99.90
21261;DHT22;10788;47.930;9.766;2023-09-30T09:27:52;18.70;99.90
21261;DHT22;10788;47.930;9.766;2023-09-30T09:30:26;18.80;99.90
21261;DHT22;10788;47.930;9.766;2023-09-30T09:33:05;19.10;99.90
21261;DHT22;10788;47.930;9.766;2023-09-30T09:35:33;19.30;99.90
21261;DHT22;10788;47.930;9.766;2023-09-30T09:38:06;19.40;99.90
21261;DHT22;10788;47.930;9.766;2023-09-30T09:40:34;19.60;99.90
21261;DHT22;10788;47.930;9.766;2023-09-30T09:43:00;19.70;99.90
21261;DHT22;10788;47.930;9.766;2023-09-30T09:45:30;19.70;99.90
21261;DHT22;10788;47.930;9.766;2023-09-30T09:47:58;19.40;99.90
21261;DHT22;10788;47.930;9.766;2023-09-30T09:50:24;19.30;99.90
21261;DHT22;10788;47.930;9.766;2023-09-30T09:52:51;19.20;99.90
21261;DHT22;10788;47.930;9.766;2023-09-30T09:55:18;19.10;99.90
21261;DHT22;10788;47.930;9.766;2023-09-30T09:57:45;19.20;99.90
21261;DHT22;10788;47.930;9.766;2023-09-30T10:00:23;19.20;99.90
21261;DHT22;10788;47.930;9.766;2023-09-30T10:02:49;19.20;99.90
21261;DHT22;10788;47.930;9.766;2023-09-30T10:05:16;19.30;99.90
21261;DHT22;10788;47.930;9.766;2023-09-30T10:10:23;19.50;99.90
21261;DHT22;10788;47.930;9.766;2023-09-30T10:12:49;19.50;99.90
21261;DHT22;10788;47.930;9.766;2023-09-30T10:18:08;19.80;99.90
21261;DHT22;10788;47.930;9.766;2023-09-30T10:20:38;19.80;99.90
21261;DHT22;10788;47.930;9.766;2023-09-30T10:25:51;19.90;99.90
21261;DHT22;10788;47.930;9.766;2023-09-30T10:31:15;19.70;99.90
21261;DHT22;10788;47.930;9.766;2023-09-30T10:38:57;19.60;99.90
21261;DHT22;10788;47.930;9.766;2023-09-30T10:46:51;19.70;99.90
21261;DHT22;10788;47.930;9.766;2023-09-30T10:51:50;19.70;99.90
21261;DHT22;10788;47.930;9.766;2023-09-30T10:54:22;19.70;99.90
21261;DHT22;10788;47.930;9.766;2023-09-30T10:56:51;19.70;99.90
21261;DHT22;10788;47.930;9.766;2023-09-30T10:59:22;19.60;99.90
21261;DHT22;10788;47.930;9.766;2023-09-30T11:01:49;19.70;99.90
21261;DHT22;10788;47.930;9.766;2023-09-30T11:04:15;19.80;99.90
21261;DHT22;10788;47.930;9.766;2023-09-30T11:06:44;20.00;99.90
21261;DHT22;10788;47.930;9.766;2023-09-30T11:09:15;20.10;99.90
21261;DHT22;10788;47.930;9.766;2023-09-30T11:11:46;19.90;99.90
21261;DHT22;10788;47.930;9.766;2023-09-30T11:14:25;20.00;99.90
21261;DHT22;10788;47.930;9.766;2023-09-30T11:16:52;20.20;99.90
21261;DHT22;10788;47.930;9.766;2023-09-30T11:19:19;20.30;99.90
21261;DHT22;10788;47.930;9.766;2023-09-30T11:21:47;20.30;99.90
21261;DHT22;10788;47.930;9.766;2023-09-30T11:24:14;20.40;99.90
21261;DHT22;10788;47.930;9.766;2023-09-30T11:26:39;20.40;99.90
21261;DHT22;10788;47.930;9.766;2023-09-30T11:29:12;20.40;99.90
21261;DHT22;10788;47.930;9.766;2023-09-30T11:31:40;20.30;99.90
21261;DHT22;10788;47.930;9.766;2023-09-30T11:34:06;20.20;99.90
21261;DHT22;10788;47.930;9.766;2023-09-30T11:36:35;20.20;99.90
21261;DHT22;10788;47.930;9.766;2023-09-30T11:39:01;20.20;99.90
21261;DHT22;10788;47.930;9.766;2023-09-30T11:41:36;20.10;99.90
21261;DHT22;10788;47.930;9.766;2023-09-30T11:46:31;20.10;99.90
21261;DHT22;10788;47.930;9.766;2023-09-30T11:49:04;20.10;99.90
21261;DHT22;10788;47.930;9.766;2023-09-30T11:51:43;20.10;99.90
21261;DHT22;10788;47.930;9.766;2023-09-30T11:54:14;20.20;99.90
21261;DHT22;10788;47.930;9.766;2023-09-30T11:56:40;20.30;99.90
21261;DHT22;10788;47.930;9.766;2023-09-30T11:59:05;20.20;99.90
21261;DHT22;10788;47.930;9.766;2023-09-30T12:01:31;20.30;99.90
21261;DHT22;10788;47.930;9.766;2023-09-30T12:03:58;20.40;99.90
21261;DHT22;10788;47.930;9.766;2023-09-30T12:06:24;20.40;99.90
21261;DHT22;10788;47.930;9.766;2023-09-30T12:08:51;20.40;99.90
21261;DHT22;10788;47.930;9.766;2023-09-30T12:11:20;20.30;99.90
21261;DHT22;10788;47.930;9.766;2023-09-30T12:13:46;20.30;99.90
21261;DHT22;10788;47.930;9.766;2023-09-30T12:16:15;20.20;99.90
21261;DHT22;10788;47.930;9.766;2023-09-30T12:18:41;20.20;99.90
21261;DHT22;10788;47.930;9.766;2023-09-30T12:21:08;20.00;99.90
21261;DHT22;10788;47.930;9.766;2023-09-30T12:23:34;20.00;99.90
21261;DHT22;10788;47.930;9.766;2023-09-30T12:26:00;20.10;99.90
21261;DHT22;10788;47.930;9.766;2023-09-30T12:28:31;20.00;99.90
21261;DHT22;10788;47.930;9.766;2023-09-30T12:30:58;19.70;99.90
21261;DHT22;10788;47.930;9.766;2023-09-30T12:33:23;19.70;99.90
21261;DHT22;10788;47.930;9.766;2023-09-30T12:35:49;20.00;99.90
21261;DHT22;10788;47.930;9.766;2023-09-30T12:38:15;20.10;99.90
21261;DHT22;10788;47.930;9.766;2023-09-30T12:40:42;20.20;99.90
21261;DHT22;10788;47.930;9.766;2023-09-30T12:43:09;20.30;99.90
21261;DHT22;10788;47.930;9.766;2023-09-30T12:45:35;20.30;99.90
21261;DHT22;10788;47.930;9.766;2023-09-30T12:48:04;20.30;99.90
21261;DHT22;10788;47.930;9.766;2023-09-30T12:50:29;20.20;99.90
21261;DHT22;10788;47.930;9.766;2023-09-30T12:52:55;20.20;99.90
21261;DHT22;10788;47.930;9.766;2023-09-30T12:55:21;20.30;99.90
21261;DHT22;10788;47.930;9.766;2023-09-30T12:57:47;20.30;99.90
21261;DHT22;10788;47.930;9.766;2023-09-30T13:00:13;20.40;99.90
21261;DHT22;10788;47.930;9.766;2023-09-30T13:02:41;20.40;99.90
21261;DHT22;10788;47.930;9.766;2023-09-30T13:05:07;20.40;99.90
21261;DHT22;10788;47.930;9.766;2023-09-30T13:07:33;20.40;99.90
21261;DHT22;10788;47.930;9.766;2023-09-30T13:09:58;20.30;99.90
21261;DHT22;10788;47.930;9.766;2023-09-30T13:12:28;20.30;99.90
21261;DHT22;10788;47.930;9.766;2023-09-30T13:14:54;20.00;99.90
21261;DHT22;10788;47.930;9.766;2023-09-30T13:17:22;20.00;99.90
21261;DHT22;10788;47.930;9.766;2023-09-30T13:19:49;20.10;99.90
21261;DHT22;10788;47.930;9.766;2023-09-30T13:22:15;20.10;99.90
21261;DHT22;10788;47.930;9.766;2023-09-30T13:24:42;20.20;99.90
21261;DHT22;10788;47.930;9.766;2023-09-30T13:27:08;20.20;99.90
21261;DHT22;10788;47.930;9.766;2023-09-30T13:29:33;20.10;99.90
21261;DHT22;10788;47.930;9.766;2023-09-30T13:31:59;20.20;99.90
21261;DHT22;10788;47.930;9.766;2023-09-30T13:34:25;20.30;99.90
21261;DHT22;10788;47.930;9.766;2023-09-30T13:36:51;20.30;99.90
21261;DHT22;10788;47.930;9.766;2023-09-30T13:39:16;20.30;99.90
21261;DHT22;10788;47.930;9.766;2023-09-30T13:41:43;20.30;99.90
21261;DHT22;10788;47.930;9.766;2023-09-30T13:44:09;20.30;99.90
21261;DHT22;10788;47.930;9.766;2023-09-30T13:46:36;20.10;99.90
21261;DHT22;10788;47.930;9.766;2023-09-30T13:49:01;20.10;99.90
21261;DHT22;10788;47.930;9.766;2023-09-30T13:51:27;20.10;99.90
21261;DHT22;10788;47.930;9.766;2023-09-30T13:53:52;20.10;99.90
21261;DHT22;10788;47.930;9.766;2023-09-30T13:56:19;20.20;99.90
21261;DHT22;10788;47.930;9.766;2023-09-30T13:58:44;20.10;99.90
21261;DHT22;10788;47.930;9.766;2023-09-30T14:01:13;20.00;99.90
21261;DHT22;10788;47.930;9.766;2023-09-30T14:03:38;20.10;99.90
21261;DHT22;10788;47.930;9.766;2023-09-30T14:06:10;20.10;99.90
21261;DHT22;10788;47.930;9.766;2023-09-30T14:08:36;20.00;99.90
21261;DHT22;10788;47.930;9.766;2023-09-30T14:11:02;20.00;99.90
21261;DHT22;10788;47.930;9.766;2023-09-30T14:13:27;20.10;99.90
21261;DHT22;10788;47.930;9.766;2023-09-30T14:15:53;20.20;99.90
21261;DHT22;10788;47.930;9.766;2023-09-30T14:18:19;20.20;99.90
21261;DHT22;10788;47.930;9.766;2023-09-30T14:20:44;20.40;99.90
21261;DHT22;10788;47.930;9.766;2023-09-30T14:23:11;20.30;99.90
21261;DHT22;10788;47.930;9.766;2023-09-30T14:25:37;20.30;99.90
21261;DHT22;10788;47.930;9.766;2023-09-30T14:28:02;20.30;99.90
21261;DHT22;10788;47.930;9.766;2023-09-30T14:30:28;20.30;99.90
21261;DHT22;10788;47.930;9.766;2023-09-30T14:32:54;20.30;99.90
21261;DHT22;10788;47.930;9.766;2023-09-30T14:35:20;20.30;99.90
21261;DHT22;10788;47.930;9.766;2023-09-30T14:37:46;20.20;99.90
21261;DHT22;10788;47.930;9.766;2023-09-30T14:40:11;20.20;99.90
21261;DHT22;10788;47.930;9.766;2023-09-30T14:42:38;20.20;99.90
21261;DHT22;10788;47.930;9.766;2023-09-30T14:45:04;20.20;99.90
21261;DHT22;10788;47.930;9.766;2023-09-30T14:47:30;20.20;99.90
21261;DHT22;10788;47.930;9.766;2023-09-30T14:49:56;20.20;99.90
21261;DHT22;10788;47.930;9.766;2023-09-30T14:52:21;20.30;99.90
21261;DHT22;10788;47.930;9.766;2023-09-30T14:54:47;20.40;99.90
21261;DHT22;10788;47.930;9.766;2023-09-30T14:57:12;20.40;99.90
21261;DHT22;10788;47.930;9.766;2023-09-30T14:59:41;20.30;99.90
21261;DHT22;10788;47.930;9.766;2023-09-30T15:02:07;20.30;99.90
21261;DHT22;10788;47.930;9.766;2023-09-30T15:04:36;20.30;99.90
21261;DHT22;10788;47.930;9.766;2023-09-30T15:07:02;20.30;99.90
21261;DHT22;10788;47.930;9.766;2023-09-30T15:09:28;20.30;99.90
21261;DHT22;10788;47.930;9.766;2023-09-30T15:11:53;20.20;99.90
21261;DHT22;10788;47.930;9.766;2023-09-30T15:14:19;20.30;99.90
21261;DHT22;10788;47.930;9.766;2023-09-30T15:16:46;20.30;99.90
21261;DHT22;10788;47.930;9.766;2023-09-30T15:19:12;20.20;99.90
21261;DHT22;10788;47.930;9.766;2023-09-30T15:21:37;20.20;99.90
21261;DHT22;10788;47.930;9.766;2023-09-30T15:24:04;20.10;99.90
21261;DHT22;10788;47.930;9.766;2023-09-30T15:26:30;20.10;99.90
21261;DHT22;10788;47.930;9.766;2023-09-30T15:28:56;20.10;99.90
21261;DHT22;10788;47.930;9.766;2023-09-30T15:31:32;20.00;99.90
21261;DHT22;10788;47.930;9.766;2023-09-30T15:33:58;20.00;99.90
21261;DHT22;10788;47.930;9.766;2023-09-30T15:36:24;20.00;99.90
21261;DHT22;10788;47.930;9.766;2023-09-30T15:38:51;20.00;99.90
21261;DHT22;10788;47.930;9.766;2023-09-30T15:41:22;20.00;99.90
21261;DHT22;10788;47.930;9.766;2023-09-30T15:43:49;19.90;99.90
21261;DHT22;10788;47.930;9.766;2023-09-30T15:46:15;19.90;99.90
21261;DHT22;10788;47.930;9.766;2023-09-30T15:48:41;19.80;99.90
21261;DHT22;10788;47.930;9.766;2023-09-30T15:51:06;19.70;99.90
21261;DHT22;10788;47.930;9.766;2023-09-30T15:53:32;19.80;99.90
21261;DHT22;10788;47.930;9.766;2023-09-30T15:56:02;19.70;99.90